createdAt,value
2022-09-10T00:02:12.021Z,100569.78
2022-09-10T00:04:38.796Z,100568.97
2022-09-10T00:07:05.520Z,100570.75
2022-09-10T00:09:32.201Z,100567.38
2022-09-10T00:11:58.900Z,100569.81
2022-09-10T00:14:25.758Z,100574.81
2022-09-10T00:16:52.542Z,100573.81
2022-09-10T00:19:19.598Z,100571.19
2022-09-10T00:21:46.441Z,100566.97
2022-09-10T00:24:13.595Z,100572.91
2022-09-10T00:26:40.425Z,100568.69
2022-09-10T00:29:10.470Z,100570.44
2022-09-10T00:31:37.597Z,100575.47
2022-09-10T00:34:05.740Z,100569.38
2022-09-10T00:36:36.612Z,100574.50
2022-09-10T00:39:07.573Z,100570.22
2022-09-10T00:41:36.734Z,100578.59
2022-09-10T00:44:41.450Z,100574.56
2022-09-10T00:47:21.557Z,100579.44
2022-09-10T00:49:53.115Z,100578.56
2022-09-10T00:52:20.154Z,100583.69
2022-09-10T00:54:47.674Z,100582.78
2022-09-10T00:57:20.308Z,100586.25
2022-09-10T00:59:52.018Z,100581.84
2022-09-10T01:02:19.171Z,100578.38
2022-09-10T01:04:46.761Z,100575.78
2022-09-10T01:07:14.559Z,100578.25
2022-09-10T01:09:42.270Z,100578.19
2022-09-10T01:12:12.378Z,100586.69
2022-09-10T01:15:07.249Z,100586.06
2022-09-10T01:17:52.090Z,100585.03
2022-09-10T01:20:30.495Z,100585.88
2022-09-10T01:23:09.007Z,100590.06
2022-09-10T01:25:49.957Z,100593.56
2022-09-10T01:28:33.934Z,100585.91
2022-09-10T01:31:12.052Z,100589.19
2022-09-10T01:33:47.800Z,100589.06
2022-09-10T01:36:20.855Z,100596.75
2022-09-10T01:38:50.859Z,100594.88
2022-09-10T01:41:20.613Z,100593.16
2022-09-10T01:43:47.339Z,100591.38
2022-09-10T01:46:32.082Z,100589.97
2022-09-10T01:49:38.364Z,100589.00
2022-09-10T01:52:15.413Z,100589.53
2022-09-10T01:55:00.029Z,100588.75
2022-09-10T01:57:33.489Z,100590.47
2022-09-10T02:00:11.594Z,100593.03
2022-09-10T02:02:59.219Z,100592.91
2022-09-10T02:05:28.872Z,100589.22
2022-09-10T02:08:02.002Z,100596.25
2022-09-10T02:10:29.409Z,100592.72
2022-09-10T02:12:56.307Z,100590.97
2022-09-10T02:15:28.464Z,100589.31
2022-09-10T02:17:55.960Z,100584.97
2022-09-10T02:20:23.532Z,100595.22
2022-09-10T02:22:55.534Z,100583.31
2022-09-10T02:25:22.221Z,100582.75
2022-09-10T02:27:49.025Z,100577.91
2022-09-10T02:30:16.950Z,100581.34
2022-09-10T02:32:43.710Z,100585.63
2022-09-10T02:35:10.693Z,100578.72
2022-09-10T02:37:37.466Z,100583.78
2022-09-10T02:40:05.649Z,100578.53
2022-09-10T02:42:33.537Z,100578.53
2022-09-10T02:45:00.408Z,100572.53
2022-09-10T02:47:27.148Z,100578.53
2022-09-10T02:49:53.845Z,100583.66
2022-09-10T02:52:22.034Z,100581.09
2022-09-10T02:54:50.412Z,100583.66
2022-09-10T02:57:17.104Z,100584.50
2022-09-10T02:59:43.804Z,100586.28
2022-09-10T03:02:10.555Z,100595.75
2022-09-10T03:04:37.352Z,100585.50
2022-09-10T03:07:04.256Z,100583.78
2022-09-10T03:09:30.956Z,100582.06
2022-09-10T03:11:57.668Z,100585.50
2022-09-10T03:14:25.839Z,100584.63
2022-09-10T03:16:52.710Z,100582.88
2022-09-10T03:19:19.664Z,100582.94
2022-09-10T03:21:47.573Z,100580.47
2022-09-10T03:24:15.604Z,100579.69
2022-09-10T03:26:44.485Z,100581.53
2022-09-10T03:29:11.542Z,100584.09
2022-09-10T03:31:39.327Z,100584.09
2022-09-10T03:34:06.249Z,100585.00
2022-09-10T03:36:32.966Z,100583.44
2022-09-10T03:38:59.804Z,100581.84
2022-09-10T03:41:28.466Z,100589.66
2022-09-10T03:43:55.900Z,100587.22
2022-09-10T03:46:23.069Z,100586.47
2022-09-10T03:48:53.347Z,100586.56
2022-09-10T03:51:23.240Z,100593.56
2022-09-10T03:53:49.987Z,100583.38
2022-09-10T03:56:20.063Z,100587.84
2022-09-10T03:58:49.217Z,100584.53
2022-09-10T04:01:17.524Z,100592.34
2022-09-10T04:03:44.816Z,100595.00
2022-09-10T04:06:13.345Z,100590.91
2022-09-10T04:08:40.766Z,100587.66
2022-09-10T04:11:07.496Z,100594.69
2022-09-10T04:13:34.213Z,100593.16
2022-09-10T04:16:01.238Z,100593.38
2022-09-10T04:18:29.012Z,100591.91
2022-09-10T04:20:56.413Z,100590.47
2022-09-10T04:23:23.197Z,100592.41
2022-09-10T04:25:50.654Z,100591.75
2022-09-10T04:28:17.357Z,100599.66
2022-09-10T04:30:45.225Z,100594.78
2022-09-10T04:33:11.926Z,100597.63
2022-09-10T04:35:39.626Z,100598.66
2022-09-10T04:38:08.144Z,100602.72
2022-09-10T04:40:38.385Z,100600.56
2022-09-10T04:43:05.149Z,100602.03
2022-09-10T04:45:34.790Z,100592.81
2022-09-10T04:48:06.651Z,100602.50
2022-09-10T04:50:33.813Z,100599.03
2022-09-10T04:53:01.239Z,100595.22
2022-09-10T04:55:30.159Z,100590.47
2022-09-10T04:57:56.834Z,100589.06
2022-09-10T05:00:23.518Z,100596.13
2022-09-10T05:02:50.225Z,100588.56
2022-09-10T05:05:16.901Z,100591.34
2022-09-10T05:07:43.658Z,100589.78
2022-09-10T05:10:10.617Z,100589.94
2022-09-10T05:12:38.532Z,100581.47
2022-09-10T05:15:06.782Z,100587.66
2022-09-10T05:17:34.190Z,100588.66
2022-09-10T05:20:00.969Z,100597.38
2022-09-10T05:22:34.915Z,100584.56
2022-09-10T05:25:04.477Z,100585.56
2022-09-10T05:27:31.160Z,100583.94
2022-09-10T05:29:58.094Z,100593.63
2022-09-10T05:32:25.078Z,100590.25
2022-09-10T05:34:51.949Z,100592.94
2022-09-10T05:37:18.809Z,100589.53
2022-09-10T05:39:48.477Z,100587.06
2022-09-10T05:42:15.740Z,100587.16
2022-09-10T05:44:42.467Z,100591.63
2022-09-10T05:47:09.159Z,100597.75
2022-09-10T05:49:37.216Z,100597.84
2022-09-10T05:52:04.124Z,100592.69
2022-09-10T05:54:30.859Z,100593.59
2022-09-10T05:56:58.725Z,100588.47
2022-09-10T05:59:25.430Z,100584.19
2022-09-10T06:01:52.253Z,100590.25
2022-09-10T06:04:22.174Z,100587.75
2022-09-10T06:06:49.729Z,100583.47
2022-09-10T06:09:17.149Z,100580.97
2022-09-10T06:11:43.983Z,100574.94
2022-09-10T06:14:10.685Z,100581.91
2022-09-10T06:16:37.442Z,100588.91
2022-09-10T06:19:04.265Z,100582.06
2022-09-10T06:21:30.944Z,100577.78
2022-09-10T06:23:57.806Z,100573.56
2022-09-10T06:26:24.540Z,100571.91
2022-09-10T06:28:51.217Z,100569.38
2022-09-10T06:31:19.617Z,100573.72
2022-09-10T06:33:48.938Z,100580.69
2022-09-10T06:36:16.306Z,100573.81
2022-09-10T06:38:45.115Z,100564.31
2022-09-10T06:41:13.903Z,100556.59
2022-09-10T06:43:41.716Z,100563.50
2022-09-10T06:46:50.856Z,100560.97
2022-09-10T06:49:04.294Z,100575.72
2022-09-10T06:51:31.401Z,100575.78
2022-09-10T06:53:58.162Z,100577.56
2022-09-10T06:56:25.045Z,100556.81
2022-09-10T06:58:51.888Z,100555.13
2022-09-10T07:01:22.898Z,100541.28
2022-09-10T07:03:57.762Z,100553.44
2022-09-10T07:06:26.078Z,100553.44
2022-09-10T07:08:57.526Z,100558.69
2022-09-10T07:11:26.814Z,100537.06
2022-09-10T07:13:53.916Z,100534.47
2022-09-10T07:16:22.158Z,100542.31
2022-09-10T07:18:54.697Z,100538.06
2022-09-10T07:21:22.688Z,100532.97
2022-09-10T07:23:50.110Z,100539.06
2022-09-10T07:26:19.643Z,100540.81
2022-09-10T07:28:46.638Z,100520.94
2022-09-10T07:31:24.661Z,100519.25
2022-09-10T07:33:51.429Z,100521.84
2022-09-10T07:36:18.733Z,100514.94
2022-09-10T07:38:45.609Z,100498.50
2022-09-10T07:41:14.258Z,100518.47
2022-09-10T07:43:42.137Z,100509.84
2022-09-10T07:46:12.719Z,100489.97
2022-09-10T07:48:41.449Z,100480.44
2022-09-10T07:51:10.845Z,100483.94
2022-09-10T07:53:38.675Z,100478.75
2022-09-10T07:56:07.520Z,100483.09
2022-09-10T07:58:36.093Z,100491.75
2022-09-10T08:01:12.052Z,100486.56
2022-09-10T08:03:40.191Z,100492.59
2022-09-10T08:06:09.142Z,100490.03
2022-09-10T08:08:38.696Z,100492.66
2022-09-10T08:11:12.001Z,100474.47
2022-09-10T08:13:41.484Z,100477.09
2022-09-10T08:16:13.817Z,100471.09
2022-09-10T08:18:41.134Z,100470.25
2022-09-10T08:21:09.046Z,100460.75
2022-09-10T08:23:37.288Z,100453.84
2022-09-10T08:26:05.342Z,100445.19
2022-09-10T08:28:32.710Z,100409.69
2022-09-10T08:31:11.607Z,100416.63
2022-09-10T08:33:39.803Z,100413.16
2022-09-10T08:36:12.010Z,100413.16
2022-09-10T08:38:40.274Z,100438.28
2022-09-10T08:41:38.514Z,100419.22
2022-09-10T08:44:33.867Z,100396.72
2022-09-10T08:47:00.527Z,100416.63
2022-09-10T08:49:49.121Z,100408.84
2022-09-10T08:52:21.777Z,100411.47
2022-09-10T08:55:05.168Z,100395.84
2022-09-10T08:57:54.649Z,100409.75
2022-09-10T09:00:27.731Z,100369.00
2022-09-10T09:03:19.427Z,100387.19
2022-09-10T09:06:00.967Z,100379.41
2022-09-10T09:08:36.394Z,100381.13
2022-09-10T09:11:16.605Z,100391.50
2022-09-10T09:13:56.372Z,100372.50
2022-09-10T09:16:48.175Z,100395.03
2022-09-10T09:19:30.308Z,100407.16
2022-09-10T09:22:03.088Z,100395.88
2022-09-10T09:24:45.575Z,100389.78
2022-09-10T09:27:16.869Z,100392.41
2022-09-10T09:29:52.026Z,100355.09
2022-09-10T09:32:21.791Z,100357.69
2022-09-10T09:34:56.862Z,100359.38
2022-09-10T09:37:30.183Z,100328.13
2022-09-10T09:40:16.722Z,100310.78
2022-09-10T09:42:58.799Z,100306.44
2022-09-10T09:45:35.016Z,100305.56
2022-09-10T09:48:02.600Z,100318.56
2022-09-10T09:50:33.660Z,100311.56
2022-09-10T09:53:00.425Z,100325.34
2022-09-10T09:55:39.484Z,100283.56
2022-09-10T09:58:21.143Z,100227.94
2022-09-10T10:01:13.067Z,100139.41
2022-09-10T10:03:58.836Z,100198.53
2022-09-10T10:06:46.838Z,100127.38
2022-09-10T10:09:26.432Z,100137.69
2022-09-10T10:12:07.290Z,100158.53
2022-09-10T10:14:41.505Z,100129.81
2022-09-10T10:17:32.553Z,100111.47
2022-09-10T10:20:14.202Z,100121.56
2022-09-10T10:22:43.341Z,100042.13
2022-09-10T10:25:45.541Z,99985.03
2022-09-10T10:28:30.168Z,99896.84
2022-09-10T10:31:00.951Z,99779.16
2022-09-10T10:33:31.253Z,99704.72
2022-09-10T10:36:19.001Z,99617.41
2022-09-10T10:38:55.481Z,99606.75
2022-09-10T10:41:47.084Z,99475.13
2022-09-10T10:44:32.098Z,99460.50
2022-09-10T10:47:31.420Z,99408.25
2022-09-10T10:50:36.163Z,99430.41
2022-09-10T10:53:15.688Z,99399.56
2022-09-10T10:55:51.356Z,99404.59
2022-09-10T10:58:29.126Z,99403.50
2022-09-10T11:01:16.051Z,99316.19
2022-09-10T11:04:15.312Z,99335.72
2022-09-10T11:06:49.055Z,99339.19
2022-09-10T11:09:32.336Z,99323.22
2022-09-10T11:12:26.230Z,99300.34
2022-09-10T11:15:00.599Z,99265.16
2022-09-10T11:17:43.082Z,99266.25
2022-09-10T11:20:30.161Z,99278.88
2022-09-10T11:23:15.525Z,99269.16
2022-09-10T11:26:06.062Z,99246.00
2022-09-10T11:28:51.041Z,99206.88
2022-09-10T11:31:30.707Z,99191.97
2022-09-10T11:34:04.566Z,99146.19
2022-09-10T11:37:13.819Z,99150.38
2022-09-10T11:39:48.841Z,99157.59
2022-09-10T11:42:30.499Z,99132.75
2022-09-10T11:44:57.056Z,99180.13
2022-09-10T11:47:23.702Z,99137.34
2022-09-10T11:49:58.271Z,99091.78
2022-09-10T11:52:28.213Z,99066.34
2022-09-10T11:54:57.302Z,99037.81
2022-09-10T11:57:40.344Z,99043.56
2022-09-10T12:00:11.963Z,99031.28
2022-09-10T12:02:57.400Z,99035.81
2022-09-10T12:05:38.079Z,99039.84
2022-09-10T12:08:11.121Z,99030.78
2022-09-10T12:11:05.458Z,99016.59
2022-09-10T12:13:36.219Z,98993.84
2022-09-10T12:16:21.120Z,98993.66
2022-09-10T12:18:53.025Z,98993.25
2022-09-10T12:21:54.863Z,99015.38
2022-09-10T12:24:25.697Z,98985.44
2022-09-10T12:26:54.531Z,99026.41
2022-09-10T12:29:27.938Z,99040.06
2022-09-10T12:32:19.511Z,99040.34
2022-09-10T12:34:51.111Z,99019.66
2022-09-10T12:37:21.324Z,99020.41
2022-09-10T12:39:49.580Z,99058.19
2022-09-10T12:42:34.533Z,99060.41
2022-09-10T12:45:01.365Z,99040.59
2022-09-10T12:47:50.424Z,99052.22
2022-09-10T12:50:22.011Z,99042.53
2022-09-10T12:52:51.586Z,99072.00
2022-09-10T12:55:43.068Z,99056.16
2022-09-10T12:58:41.315Z,99052.72
2022-09-10T13:01:29.142Z,99042.22
2022-09-10T13:03:58.849Z,99039.25
2022-09-10T13:06:54.440Z,99027.81
2022-09-10T13:09:25.749Z,99004.03
2022-09-10T13:11:56.602Z,99056.41
2022-09-10T13:14:30.539Z,99046.84
2022-09-10T13:16:57.405Z,99027.22
2022-09-10T13:19:24.060Z,99061.03
2022-09-10T13:21:52.359Z,99078.25
2022-09-10T13:24:34.515Z,99069.06
2022-09-10T13:27:13.125Z,99052.78
2022-09-10T13:29:43.595Z,99031.22
2022-09-10T13:32:14.124Z,99021.53
2022-09-10T13:35:08.886Z,99015.13
2022-09-10T13:37:55.351Z,99007.94
2022-09-10T13:40:43.603Z,99027.06
2022-09-10T13:43:28.515Z,99026.34
2022-09-10T13:46:08.533Z,99039.41
2022-09-10T13:48:54.665Z,99024.44
2022-09-10T13:51:32.398Z,99028.97
2022-09-10T13:54:24.425Z,99040.69
2022-09-10T13:56:52.599Z,99050.22
2022-09-10T13:59:31.152Z,99059.66
2022-09-10T14:01:59.488Z,99032.47
2022-09-10T14:04:27.835Z,99025.38
2022-09-10T14:07:06.942Z,99041.84
2022-09-10T14:09:34.820Z,99043.47
2022-09-10T14:12:06.677Z,99053.03
2022-09-10T14:14:38.349Z,99058.28
2022-09-10T14:17:16.768Z,99083.25
2022-09-10T14:19:59.269Z,99076.25
2022-09-10T14:22:27.539Z,99059.84
2022-09-10T14:24:59.821Z,99088.31
2022-09-10T14:27:37.737Z,99134.56
2022-09-10T14:30:23.173Z,99174.56
2022-09-10T14:32:50.993Z,99200.19
2022-09-10T14:35:37.932Z,99269.75
2022-09-10T14:38:29.179Z,99313.34
2022-09-10T14:41:08.005Z,99357.25
2022-09-10T14:43:39.003Z,99375.34
2022-09-10T14:46:10.484Z,99427.34
2022-09-10T14:48:41.221Z,99447.38
2022-09-10T14:51:18.453Z,99472.97
2022-09-10T14:53:49.895Z,99490.47
2022-09-10T14:56:39.071Z,99514.97
2022-09-10T14:59:24.139Z,99538.31
2022-09-10T15:01:51.568Z,99558.69
2022-09-10T15:04:23.574Z,99585.88
2022-09-10T15:06:53.527Z,99607.47
2022-09-10T15:09:20.889Z,99614.69
2022-09-10T15:12:03.511Z,99641.03
2022-09-10T15:14:32.450Z,99662.75
2022-09-10T15:16:59.987Z,99676.13
2022-09-10T15:19:31.301Z,99691.22
2022-09-10T15:21:58.629Z,99716.59
2022-09-10T15:24:26.095Z,99728.06
2022-09-10T15:26:52.829Z,99743.94
2022-09-10T15:29:19.769Z,99772.13
2022-09-10T15:32:06.741Z,99783.56
2022-09-10T15:34:34.475Z,99786.44
2022-09-10T15:37:03.082Z,99805.72
2022-09-10T15:39:29.792Z,99818.00
2022-09-10T15:41:56.537Z,99830.41
2022-09-10T15:44:24.276Z,99847.97
2022-09-10T15:46:52.012Z,99852.47
2022-09-10T15:49:19.020Z,99858.66
2022-09-10T15:51:48.282Z,99878.78
2022-09-10T15:54:15.183Z,99892.00
2022-09-10T15:56:41.941Z,99913.81
2022-09-10T15:59:08.865Z,99933.00
2022-09-10T16:01:36.795Z,99950.47
2022-09-10T16:04:03.991Z,99965.28
2022-09-10T16:06:36.699Z,99972.16
2022-09-10T16:09:06.805Z,99977.38
2022-09-10T16:11:36.438Z,99995.72
2022-09-10T16:14:06.811Z,100023.69
2022-09-10T16:16:35.350Z,100049.13
2022-09-10T16:19:02.241Z,100072.81
2022-09-10T16:21:34.874Z,100107.63
2022-09-10T16:24:01.819Z,100132.91
2022-09-10T16:26:37.702Z,100159.78
2022-09-10T16:29:19.475Z,100179.91
2022-09-10T16:31:46.402Z,100197.31
2022-09-10T16:34:16.897Z,100231.16
2022-09-10T16:36:44.126Z,100260.66
2022-09-10T16:39:14.964Z,100291.88
2022-09-10T16:41:46.494Z,100310.06
2022-09-10T16:44:15.808Z,100343.88
2022-09-10T16:46:43.400Z,100358.56
2022-09-10T16:49:14.331Z,100386.28
2022-09-10T16:51:46.054Z,100407.91
2022-09-10T16:54:14.779Z,100419.09
2022-09-10T16:56:46.317Z,100442.47
2022-09-10T16:59:16.003Z,100465.84
2022-09-10T17:01:44.311Z,100491.75
2022-09-10T17:04:23.362Z,100521.16
2022-09-10T17:06:51.710Z,100526.28
2022-09-10T17:09:18.625Z,100546.97
2022-09-10T17:11:45.380Z,100561.66
2022-09-10T17:14:12.611Z,100581.53
2022-09-10T17:16:41.520Z,100591.91
2022-09-10T17:19:12.421Z,100611.78
2022-09-10T17:21:41.438Z,100622.06
2022-09-10T17:24:10.305Z,100626.25
2022-09-10T17:26:38.867Z,100625.31
2022-09-10T17:29:11.119Z,100622.66
2022-09-10T17:31:38.433Z,100629.50
2022-09-10T17:34:05.884Z,100627.69
2022-09-10T17:36:33.982Z,100613.81
2022-09-10T17:39:00.870Z,100606.84
2022-09-10T17:41:29.602Z,100603.34
2022-09-10T17:43:58.033Z,100588.56
2022-09-10T17:46:25.367Z,100574.69
2022-09-10T17:48:54.004Z,100545.28
2022-09-10T17:51:23.700Z,100516.75
2022-09-10T17:53:51.777Z,100492.50
2022-09-10T17:56:20.064Z,100469.97
2022-09-10T17:58:48.148Z,100437.97
2022-09-10T18:01:23.951Z,100412.94
2022-09-10T18:03:51.821Z,100384.34
2022-09-10T18:06:18.635Z,100348.97
2022-09-10T18:08:45.492Z,100330.78
2022-09-10T18:11:16.561Z,100302.28
2022-09-10T18:13:44.569Z,100274.63
2022-09-10T18:16:14.825Z,100249.56
2022-09-10T18:18:41.899Z,100226.22
2022-09-10T18:21:20.050Z,100208.13
2022-09-10T18:23:52.814Z,100183.94
2022-09-10T18:26:21.997Z,100155.44
2022-09-10T18:28:55.031Z,100142.50
2022-09-10T18:31:23.300Z,100129.50
2022-09-10T18:33:50.649Z,100126.03
2022-09-10T18:36:18.685Z,100113.03
2022-09-10T18:38:47.361Z,100119.03
2022-09-10T18:41:19.433Z,100118.16
2022-09-10T18:43:46.969Z,100106.88
2022-09-10T18:46:15.068Z,100098.22
2022-09-10T18:48:42.817Z,100106.78
2022-09-10T18:51:11.865Z,100109.38
2022-09-10T18:53:39.969Z,100098.13
2022-09-10T18:56:28.435Z,100102.47
2022-09-10T18:59:01.139Z,100109.25
2022-09-10T19:01:29.866Z,100106.63
2022-09-10T19:03:57.636Z,100109.16
2022-09-10T19:06:27.045Z,100114.38
2022-09-10T19:08:56.370Z,100108.28
2022-09-10T19:11:25.416Z,100102.25
2022-09-10T19:13:56.532Z,100110.88
2022-09-10T19:16:27.121Z,100109.09
2022-09-10T19:18:59.471Z,100111.59
2022-09-10T19:21:27.812Z,100102.91
2022-09-10T19:24:01.637Z,100104.59
2022-09-10T19:26:31.273Z,100102.03
2022-09-10T19:28:59.580Z,100102.84
2022-09-10T19:31:28.300Z,100102.81
2022-09-10T19:33:56.901Z,100102.81
2022-09-10T19:36:25.355Z,100104.47
2022-09-10T19:38:52.251Z,100105.28
2022-09-10T19:41:19.220Z,100109.56
2022-09-10T19:43:48.277Z,100101.81
2022-09-10T19:46:16.775Z,100104.31
2022-09-10T19:48:44.095Z,100104.25
2022-09-10T19:51:17.290Z,100102.59
2022-09-10T19:53:44.193Z,100102.47
2022-09-10T19:56:20.207Z,100107.63
2022-09-10T19:58:49.969Z,100105.81
2022-09-10T20:01:19.525Z,100104.97
2022-09-10T20:03:47.152Z,100108.41
2022-09-10T20:06:16.846Z,100112.75
2022-09-10T20:08:44.462Z,100110.97
2022-09-10T20:11:45.393Z,100111.91
2022-09-10T20:14:14.188Z,100114.41
2022-09-10T20:16:43.748Z,100117.88
2022-09-10T20:19:18.235Z,100112.69
2022-09-10T20:21:46.503Z,100109.19
2022-09-10T20:24:13.529Z,100118.69
2022-09-10T20:26:44.082Z,100114.34
2022-09-10T20:29:13.391Z,100111.78
2022-09-10T20:31:41.818Z,100116.06
2022-09-10T20:34:12.722Z,100112.63
2022-09-10T20:36:42.279Z,100112.53
2022-09-10T20:39:12.076Z,100115.06
2022-09-10T20:41:40.042Z,100112.41
2022-09-10T20:44:07.109Z,100121.00
2022-09-10T20:46:34.864Z,100118.34
2022-09-10T20:49:05.814Z,100122.66
2022-09-10T20:51:35.498Z,100132.16
2022-09-10T20:54:03.834Z,100123.44
2022-09-10T20:56:30.848Z,100126.00
2022-09-10T20:58:57.782Z,100128.56
2022-09-10T21:01:27.184Z,100127.69
2022-09-10T21:03:58.069Z,100130.22
2022-09-10T21:06:30.134Z,100126.75
2022-09-10T21:08:56.743Z,100129.47
2022-09-10T21:11:26.331Z,100122.41
2022-09-10T21:13:55.412Z,100130.97
2022-09-10T21:16:36.129Z,100125.81
2022-09-10T21:19:07.919Z,100124.00
2022-09-10T21:21:35.933Z,100124.00
2022-09-10T21:24:05.370Z,100122.28
2022-09-10T21:26:35.387Z,100129.16
2022-09-10T21:29:04.288Z,100128.22
2022-09-10T21:31:31.631Z,100127.34
2022-09-10T21:34:02.944Z,100130.78
2022-09-10T21:36:32.060Z,100123.06
2022-09-10T21:39:00.786Z,100127.34
2022-09-10T21:41:33.320Z,100125.66
2022-09-10T21:44:03.060Z,100125.59
2022-09-10T21:46:30.934Z,100124.66
2022-09-10T21:48:58.258Z,100123.75
2022-09-10T21:51:25.073Z,100123.75
2022-09-10T21:53:56.481Z,100123.75
2022-09-10T21:56:25.971Z,100127.16
2022-09-10T21:58:53.739Z,100123.75
2022-09-10T22:01:22.879Z,100122.06
2022-09-10T22:03:52.339Z,100122.91
2022-09-10T22:06:23.149Z,100120.25
2022-09-10T22:08:57.868Z,100121.97
2022-09-10T22:11:30.258Z,100121.03
2022-09-10T22:13:59.316Z,100125.28
2022-09-10T22:16:26.077Z,100122.66
2022-09-10T22:18:53.831Z,100125.22
2022-09-10T22:21:20.693Z,100123.47
2022-09-10T22:23:50.955Z,100123.44
2022-09-10T22:26:20.631Z,100123.44
2022-09-10T22:28:51.911Z,100113.09
2022-09-10T22:31:21.062Z,100118.16
2022-09-10T22:33:53.430Z,100111.34
2022-09-10T22:36:23.695Z,100121.53
2022-09-10T22:38:52.505Z,100119.75
2022-09-10T22:41:19.610Z,100120.56
2022-09-10T22:43:46.445Z,100116.22
2022-09-10T22:46:13.554Z,100115.41
2022-09-10T22:48:42.722Z,100107.66
2022-09-10T22:51:18.181Z,100103.34
2022-09-10T22:53:46.200Z,100104.09
2022-09-10T22:56:14.381Z,100097.25
2022-09-10T22:58:41.641Z,100093.78
2022-09-10T23:01:12.338Z,100098.94
2022-09-10T23:03:39.960Z,100096.31
2022-09-10T23:06:20.884Z,100096.44
2022-09-10T23:08:52.146Z,100092.94
2022-09-10T23:11:21.504Z,100092.06
2022-09-10T23:14:01.613Z,100090.38
2022-09-10T23:16:34.739Z,100083.59
2022-09-10T23:19:04.428Z,100086.13
2022-09-10T23:21:32.634Z,100080.06
2022-09-10T23:24:05.491Z,100083.44
2022-09-10T23:26:32.741Z,100080.66
2022-09-10T23:29:03.362Z,100078.00
2022-09-10T23:31:32.771Z,100077.88
2022-09-10T23:34:14.133Z,100065.03
2022-09-10T23:36:43.794Z,100071.81
2022-09-10T23:39:20.117Z,100061.56
2022-09-10T23:41:49.214Z,100062.38
2022-09-10T23:44:16.216Z,100056.28
2022-09-10T23:46:44.615Z,100059.69
2022-09-10T23:49:12.965Z,100050.19
2022-09-10T23:51:40.378Z,100055.25
2022-09-10T23:54:07.217Z,100055.16
2022-09-10T23:56:33.973Z,100052.50
2022-09-10T23:59:00.913Z,100058.50
